Latest Weather Observations for South Channel Island

IDV60901

Issued at 6:51 am EDT Wednesday 7 December 2016 (issued every 10 minutes, with the page automatically refreshed every 10 minutes)

About weather observations | Map of Melbourne area stations | Latest observations for Melbourne area | Other Formats
Station Details ID: 086344 Name: SOUTH CHANNEL ISLAND Lat: -38.31 Lon: 144.80 Height: 9.0 m
Data from the previous 72 hours. | See also: Recent months for locations in Victoria
Date/Time
EDT
Temp
°C
App
Temp
°C
Dew
Point
°C
Rel
Hum
%
Delta-T
°C
Wind Press
QNH
hPa
Press
MSL
hPa
Rain since
9am
mm
Dir  Spd
km/h
Gust
km/h
Spd
kts
Gust
kts
07/06:30am - - - - - NNE 11 15 6 8 - - -
07/06:00am - - - - - N 9 13 5 7 - - -
07/05:30am - - - - - NNE 9 13 5 7 - - -
07/05:00am - - - - - NE 9 13 5 7 - - -
07/04:30am - - - - - NNE 9 11 5 6 - - -
07/04:00am - - - - - CALM 0 6 0 3 - - -
07/03:30am - - - - - CALM 0 6 0 3 - - -
07/03:00am - - - - - E 6 9 3 5 - - -
07/02:30am - - - - - ENE 6 9 3 5 - - -
07/02:00am - - - - - ESE 6 7 3 4 - - -
07/01:30am - - - - - SE 7 9 4 5 - - -
07/01:00am - - - - - SSE 7 9 4 5 - - -
07/12:30am - - - - - ESE 9 11 5 6 - - -
07/12:00am - - - - - S 13 15 7 8 - - -
 
Date/Time
EDT
Temp
°C
App
Temp
°C
Dew
Point
°C
Rel
Hum
%
Delta-T
°C
Wind Press
QNH
hPa
Press
MSL
hPa
Rain since
9am
mm
Dir  Spd
km/h
Gust
km/h
Spd
kts
Gust
kts
06/11:30pm - - - - - S 17 19 9 10 - - -
06/11:00pm - - - - - S 17 22 9 12 - - -
06/10:30pm - - - - - SSW 22 26 12 14 - - -
06/10:00pm - - - - - SSW 22 28 12 15 - - -
06/09:30pm - - - - - SSW 26 30 14 16 - - -
06/09:00pm - - - - - S 22 28 12 15 - - -
06/08:30pm - - - - - S 24 30 13 16 - - -
06/08:00pm - - - - - SSW 28 32 15 17 - - -
06/07:30pm - - - - - SSW 28 35 15 19 - - -
06/07:00pm - - - - - SSW 30 35 16 19 - - -
06/06:30pm - - - - - SSW 28 37 15 20 - - -
06/06:00pm - - - - - SSW 30 37 16 20 - - -
06/05:30pm - - - - - SSW 32 35 17 19 - - -
06/05:00pm - - - - - SSW 32 39 17 21 - - -
06/04:30pm - - - - - SSW 32 37 17 20 - - -
06/04:00pm - - - - - SSW 26 32 14 17 - - -
06/03:30pm - - - - - SSW 26 30 14 16 - - -
06/03:00pm - - - - - SSW 28 32 15 17 - - -
06/02:30pm - - - - - SSW 22 28 12 15 - - -
06/02:00pm - - - - - SSW 17 26 9 14 - - -
06/01:30pm - - - - - SSW 22 28 12 15 - - -
06/01:00pm - - - - - SSW 20 26 11 14 - - -
06/12:30pm - - - - - SSW 20 24 11 13 - - -
06/12:00pm - - - - - SSW 17 22 9 12 - - -
06/11:30am - - - - - SW 13 22 7 12 - - -
06/11:00am - - - - - SSW 9 11 5 6 - - -
06/10:30am - - - - - SW 9 11 5 6 - - -
06/10:00am - - - - - SSW 9 15 5 8 - - -
06/09:30am - - - - - SW 15 20 8 11 - - -
06/09:00am - - - - - SSW 13 17 7 9 - - -
06/08:30am - - - - - S 11 15 6 8 - - -
06/08:00am - - - - - SW 19 24 10 13 - - -
06/07:30am - - - - - SSW 17 20 9 11 - - -
06/07:00am - - - - - S 13 17 7 9 - - -
06/06:30am - - - - - SW 13 19 7 10 - - -
06/06:00am - - - - - SW 11 15 6 8 - - -
06/05:30am - - - - - SSW 6 9 3 5 - - -
06/05:00am - - - - - E 4 7 2 4 - - -
06/04:30am - - - - - E 11 15 6 8 - - -
06/04:00am - - - - - ESE 13 17 7 9 - - -
06/03:30am - - - - - SE 17 20 9 11 - - -
06/03:00am - - - - - SE 15 17 8 9 - - -
06/02:30am - - - - - S 17 20 9 11 - - -
06/02:00am - - - - - S 20 26 11 14 - - -
06/01:30am - - - - - SSW 24 28 13 15 - - -
06/01:00am - - - - - SSW 20 26 11 14 - - -
06/12:30am - - - - - SSW 15 19 8 10 - - -
06/12:00am - - - - - SSE 13 17 7 9 - - -
 
Date/Time
EDT
Temp
°C
App
Temp
°C
Dew
Point
°C
Rel
Hum
%
Delta-T
°C
Wind Press
QNH
hPa
Press
MSL
hPa
Rain since
9am
mm
Dir  Spd
km/h
Gust
km/h
Spd
kts
Gust
kts
05/11:30pm - - - - - SSE 15 17 8 9 - - -
05/11:00pm - - - - - S 17 20 9 11 - - -
05/10:30pm - - - - - S 24 30 13 16 - - -
05/10:00pm - - - - - SSW 26 32 14 17 - - -
05/09:30pm - - - - - SSW 26 30 14 16 - - -
05/09:00pm - - - - - S 26 30 14 16 - - -
05/08:30pm - - - - - S 28 32 15 17 - - -
05/08:00pm - - - - - S 26 32 14 17 - - -
05/07:30pm - - - - - S 28 33 15 18 - - -
05/07:00pm - - - - - S 30 35 16 19 - - -
05/06:30pm - - - - - S 33 39 18 21 - - -
05/06:00pm - - - - - S 32 37 17 20 - - -
05/05:30pm - - - - - S 35 43 19 23 - - -
05/05:00pm - - - - - S 35 39 19 21 - - -
05/04:30pm - - - - - SSW 35 41 19 22 - - -
05/04:00pm - - - - - SSW 33 37 18 20 - - -
05/03:30pm - - - - - SSW 30 35 16 19 - - -
05/03:00pm - - - - - SSW 32 35 17 19 - - -
05/02:30pm - - - - - SSW 30 33 16 18 - - -
05/02:00pm - - - - - SSW 33 37 18 20 - - -
05/01:30pm - - - - - SSW 33 37 18 20 - - -
05/01:00pm - - - - - SSW 32 35 17 19 - - -
05/12:30pm - - - - - SSW 32 35 17 19 - - -
05/12:00pm - - - - - SW 28 32 15 17 - - -
05/11:30am - - - - - SSW 30 35 16 19 - - -
05/11:00am - - - - - SW 30 35 16 19 - - -
05/10:30am - - - - - SW 32 35 17 19 - - -
05/10:00am - - - - - SW 32 37 17 20 - - -
05/09:30am - - - - - WSW 35 39 19 21 - - -
05/09:00am - - - - - SW 39 48 21 26 - - -
05/08:30am - - - - - SW 39 44 21 24 - - -
05/08:00am - - - - - SW 44 54 24 29 - - -
05/07:30am - - - - - SW 43 50 23 27 - - -
05/07:00am - - - - - SW 46 54 25 29 - - -
05/06:30am - - - - - SW 46 52 25 28 - - -
05/06:00am - - - - - WSW 48 56 26 30 - - -
05/05:30am - - - - - SW 43 54 23 29 - - -
05/05:00am - - - - - SW 50 56 27 30 - - -
05/04:30am - - - - - SSW 52 63 28 34 - - -
05/04:22am - - - - - WSW 32 63 17 34 - - -
05/04:21am - - - - - WSW 30 63 16 34 - - -
05/04:00am - - - - - N 22 28 12 15 - - -
05/03:30am - - - - - N 30 32 16 17 - - -
05/03:00am - - - - - NNE 32 33 17 18 - - -
05/02:30am - - - - - N 33 39 18 21 - - -
05/02:00am - - - - - N 35 39 19 21 - - -
05/01:30am - - - - - N 39 44 21 24 - - -
05/01:00am - - - - - N 44 48 24 26 - - -
05/12:30am - - - - - N 50 59 27 32 - - -
05/12:00am - - - - - N 46 54 25 29 - - -
 
Date/Time
EDT
Temp
°C
App
Temp
°C
Dew
Point
°C
Rel
Hum
%
Delta-T
°C
Wind Press
QNH
hPa
Press
MSL
hPa
Rain since
9am
mm
Dir  Spd
km/h
Gust
km/h
Spd
kts
Gust
kts
04/11:30pm - - - - - NNE 44 52 24 28 - - -
04/11:00pm - - - - - NNE 37 41 20 22 - - -
04/10:30pm - - - - - NNE 37 46 20 25 - - -
04/10:00pm - - - - - NNE 39 43 21 23 - - -
04/09:30pm - - - - - NNE 35 37 19 20 - - -
04/09:00pm - - - - - N 30 33 16 18 - - -
04/08:30pm - - - - - NNW 37 48 20 26 - - -
04/08:00pm - - - - - N 33 35 18 19 - - -
04/07:30pm - - - - - N 32 33 17 18 - - -
04/07:00pm - - - - - NW 35 37 19 20 - - -
04/06:57pm - - - - - NW 35 39 19 21 - - -
04/06:30pm - - - - - WNW 41 50 22 27 - - -
04/06:08pm - - - - - NNW 24 50 13 27 - - -
04/06:00pm - - - - - N 17 24 9 13 - - -
04/05:30pm - - - - - NE 11 15 6 8 - - -
04/05:00pm - - - - - CALM 0 6 0 3 - - -
04/04:30pm - - - - - NNW 15 22 8 12 - - -
04/04:00pm - - - - - NNW 17 20 9 11 - - -
04/03:30pm - - - - - N 11 15 6 8 - - -
04/03:00pm - - - - - NE 15 17 8 9 - - -
04/02:30pm - - - - - E 15 17 8 9 - - -
04/02:00pm - - - - - ENE 13 15 7 8 - - -
04/01:30pm - - - - - E 15 17 8 9 - - -
04/01:00pm - - - - - E 11 11 6 6 - - -
04/12:30pm - - - - - ENE 15 17 8 9 - - -
04/12:00pm - - - - - ENE 11 13 6 7 - - -
04/11:30am - - - - - NE 7 9 4 5 - - -
04/11:00am - - - - - NNE 6 7 3 4 - - -
04/10:30am - - - - - NE 11 13 6 7 - - -
04/10:00am - - - - - NE 15 17 8 9 - - -
04/09:30am - - - - - NE 17 19 9 10 - - -
04/09:00am - - - - - NE 20 24 11 13 - - -
04/08:30am - - - - - NE 22 26 12 14 - - -
04/08:00am - - - - - ENE 26 28 14 15 - - -
04/07:30am - - - - - ENE 24 26 13 14 - - -
04/07:00am - - - - - ENE 22 28 12 15 - - -

Latest Capital City Observations: Canberra | Sydney | Melbourne | Brisbane | Adelaide | Perth | Hobart | Darwin

Other Formats:

Comma delimited format used in spreadsheet applications
http://www.bom.gov.au/fwo/IDV60901/IDV60901.94853.axf

JavaScript Object Notation format (JSON) in row-major order
http://www.bom.gov.au/fwo/IDV60901/IDV60901.94853.json